sensor_id;sensor_type;location;lat;lon;timestamp;P1;durP1;ratioP1;P2;durP2;ratioP2
12900;SDS011;6518;50.930;5.344;2023-04-06T00:00:26;24.40;;;16.07;;
12900;SDS011;6518;50.930;5.344;2023-04-06T00:02:53;27.17;;;16.33;;
12900;SDS011;6518;50.930;5.344;2023-04-06T00:05:22;22.10;;;16.43;;
12900;SDS011;6518;50.930;5.344;2023-04-06T00:07:49;21.60;;;15.60;;
12900;SDS011;6518;50.930;5.344;2023-04-06T00:10:16;23.47;;;16.23;;
12900;SDS011;6518;50.930;5.344;2023-04-06T00:12:44;36.77;;;17.63;;
12900;SDS011;6518;50.930;5.344;2023-04-06T00:15:11;26.00;;;16.10;;
12900;SDS011;6518;50.930;5.344;2023-04-06T00:17:38;23.23;;;17.03;;
12900;SDS011;6518;50.930;5.344;2023-04-06T00:20:06;24.90;;;16.27;;
12900;SDS011;6518;50.930;5.344;2023-04-06T00:22:33;26.03;;;17.77;;
12900;SDS011;6518;50.930;5.344;2023-04-06T00:25:00;23.43;;;16.50;;
12900;SDS011;6518;50.930;5.344;2023-04-06T00:27:27;25.37;;;16.93;;
12900;SDS011;6518;50.930;5.344;2023-04-06T00:29:56;23.17;;;16.37;;
12900;SDS011;6518;50.930;5.344;2023-04-06T00:32:23;27.20;;;16.50;;
12900;SDS011;6518;50.930;5.344;2023-04-06T00:34:50;25.67;;;17.27;;
12900;SDS011;6518;50.930;5.344;2023-04-06T00:37:16;27.40;;;17.47;;
12900;SDS011;6518;50.930;5.344;2023-04-06T00:39:44;21.53;;;15.93;;
12900;SDS011;6518;50.930;5.344;2023-04-06T00:42:11;32.03;;;18.20;;
12900;SDS011;6518;50.930;5.344;2023-04-06T00:44:39;25.07;;;16.90;;
12900;SDS011;6518;50.930;5.344;2023-04-06T00:47:07;26.43;;;17.10;;
12900;SDS011;6518;50.930;5.344;2023-04-06T00:49:34;33.10;;;16.87;;
12900;SDS011;6518;50.930;5.344;2023-04-06T00:52:01;25.40;;;17.03;;
12900;SDS011;6518;50.930;5.344;2023-04-06T00:54:29;26.23;;;16.63;;
12900;SDS011;6518;50.930;5.344;2023-04-06T00:56:56;28.40;;;17.03;;
12900;SDS011;6518;50.930;5.344;2023-04-06T00:59:23;25.90;;;16.30;;
12900;SDS011;6518;50.930;5.344;2023-04-06T01:01:50;28.57;;;16.60;;
12900;SDS011;6518;50.930;5.344;2023-04-06T01:04:19;29.50;;;17.00;;
12900;SDS011;6518;50.930;5.344;2023-04-06T01:06:47;25.60;;;16.80;;
12900;SDS011;6518;50.930;5.344;2023-04-06T01:09:14;23.60;;;16.20;;
12900;SDS011;6518;50.930;5.344;2023-04-06T01:11:42;23.17;;;15.93;;
12900;SDS011;6518;50.930;5.344;2023-04-06T01:14:09;23.23;;;16.60;;
12900;SDS011;6518;50.930;5.344;2023-04-06T01:16:36;25.40;;;16.27;;
12900;SDS011;6518;50.930;5.344;2023-04-06T01:19:06;23.60;;;16.43;;
12900;SDS011;6518;50.930;5.344;2023-04-06T01:21:36;22.13;;;16.37;;
12900;SDS011;6518;50.930;5.344;2023-04-06T01:24:05;23.43;;;16.20;;
12900;SDS011;6518;50.930;5.344;2023-04-06T01:26:33;31.17;;;16.63;;
12900;SDS011;6518;50.930;5.344;2023-04-06T01:29:01;24.40;;;15.97;;
12900;SDS011;6518;50.930;5.344;2023-04-06T01:31:29;26.83;;;16.93;;
12900;SDS011;6518;50.930;5.344;2023-04-06T01:33:56;27.23;;;16.50;;
12900;SDS011;6518;50.930;5.344;2023-04-06T01:36:23;24.40;;;15.77;;
12900;SDS011;6518;50.930;5.344;2023-04-06T01:38:50;23.80;;;16.37;;
12900;SDS011;6518;50.930;5.344;2023-04-06T01:41:18;22.80;;;15.97;;
12900;SDS011;6518;50.930;5.344;2023-04-06T01:43:46;21.03;;;15.47;;
12900;SDS011;6518;50.930;5.344;2023-04-06T01:46:14;21.93;;;15.90;;
12900;SDS011;6518;50.930;5.344;2023-04-06T01:48:41;20.90;;;15.20;;
12900;SDS011;6518;50.930;5.344;2023-04-06T01:51:08;21.97;;;16.60;;
12900;SDS011;6518;50.930;5.344;2023-04-06T01:53:35;23.20;;;15.83;;
12900;SDS011;6518;50.930;5.344;2023-04-06T01:56:02;23.37;;;15.97;;
12900;SDS011;6518;50.930;5.344;2023-04-06T01:58:30;22.83;;;15.67;;
12900;SDS011;6518;50.930;5.344;2023-04-06T02:00:57;22.47;;;16.23;;
12900;SDS011;6518;50.930;5.344;2023-04-06T02:03:24;21.87;;;15.73;;
12900;SDS011;6518;50.930;5.344;2023-04-06T02:05:51;24.43;;;16.00;;
12900;SDS011;6518;50.930;5.344;2023-04-06T02:08:18;24.17;;;15.53;;
12900;SDS011;6518;50.930;5.344;2023-04-06T02:10:45;22.40;;;16.03;;
12900;SDS011;6518;50.930;5.344;2023-04-06T02:13:12;24.17;;;16.10;;
12900;SDS011;6518;50.930;5.344;2023-04-06T02:15:40;22.07;;;16.10;;
12900;SDS011;6518;50.930;5.344;2023-04-06T02:18:08;29.07;;;16.67;;
12900;SDS011;6518;50.930;5.344;2023-04-06T02:20:35;25.47;;;15.70;;
12900;SDS011;6518;50.930;5.344;2023-04-06T02:23:02;25.03;;;17.57;;
12900;SDS011;6518;50.930;5.344;2023-04-06T02:25:29;22.67;;;15.73;;
12900;SDS011;6518;50.930;5.344;2023-04-06T02:27:56;21.33;;;15.87;;
12900;SDS011;6518;50.930;5.344;2023-04-06T02:30:23;23.87;;;16.33;;
12900;SDS011;6518;50.930;5.344;2023-04-06T02:32:51;19.57;;;15.63;;
12900;SDS011;6518;50.930;5.344;2023-04-06T02:35:18;24.50;;;15.60;;
12900;SDS011;6518;50.930;5.344;2023-04-06T02:37:45;24.37;;;15.13;;
12900;SDS011;6518;50.930;5.344;2023-04-06T02:40:13;25.37;;;16.73;;
12900;SDS011;6518;50.930;5.344;2023-04-06T02:42:40;20.87;;;15.00;;
12900;SDS011;6518;50.930;5.344;2023-04-06T02:45:07;21.63;;;16.07;;
12900;SDS011;6518;50.930;5.344;2023-04-06T02:47:34;20.23;;;14.37;;
12900;SDS011;6518;50.930;5.344;2023-04-06T02:50:03;23.93;;;15.40;;
12900;SDS011;6518;50.930;5.344;2023-04-06T02:52:30;23.10;;;15.53;;
12900;SDS011;6518;50.930;5.344;2023-04-06T02:54:57;20.83;;;14.73;;
12900;SDS011;6518;50.930;5.344;2023-04-06T02:57:24;22.57;;;15.40;;
12900;SDS011;6518;50.930;5.344;2023-04-06T02:59:51;24.40;;;15.77;;
12900;SDS011;6518;50.930;5.344;2023-04-06T03:02:18;24.37;;;15.23;;
12900;SDS011;6518;50.930;5.344;2023-04-06T03:04:45;22.57;;;14.57;;
12900;SDS011;6518;50.930;5.344;2023-04-06T03:07:14;22.00;;;15.57;;
12900;SDS011;6518;50.930;5.344;2023-04-06T03:09:41;22.80;;;15.07;;
12900;SDS011;6518;50.930;5.344;2023-04-06T03:12:08;21.60;;;15.03;;
12900;SDS011;6518;50.930;5.344;2023-04-06T03:14:35;22.27;;;14.90;;
12900;SDS011;6518;50.930;5.344;2023-04-06T03:17:02;23.00;;;15.03;;
12900;SDS011;6518;50.930;5.344;2023-04-06T03:19:29;21.23;;;14.33;;
12900;SDS011;6518;50.930;5.344;2023-04-06T03:21:56;20.60;;;15.33;;
12900;SDS011;6518;50.930;5.344;2023-04-06T03:24:24;20.77;;;14.50;;
12900;SDS011;6518;50.930;5.344;2023-04-06T03:26:51;28.03;;;15.40;;
12900;SDS011;6518;50.930;5.344;2023-04-06T03:29:18;26.40;;;15.83;;
12900;SDS011;6518;50.930;5.344;2023-04-06T03:31:45;19.70;;;13.97;;
12900;SDS011;6518;50.930;5.344;2023-04-06T03:34:12;22.87;;;14.10;;
12900;SDS011;6518;50.930;5.344;2023-04-06T03:36:39;22.40;;;15.27;;
12900;SDS011;6518;50.930;5.344;2023-04-06T03:39:06;23.27;;;13.67;;
12900;SDS011;6518;50.930;5.344;2023-04-06T03:41:34;23.40;;;13.97;;
12900;SDS011;6518;50.930;5.344;2023-04-06T03:44:01;25.53;;;15.23;;
12900;SDS011;6518;50.930;5.344;2023-04-06T03:46:28;22.90;;;14.93;;
12900;SDS011;6518;50.930;5.344;2023-04-06T03:48:54;23.47;;;14.37;;
12900;SDS011;6518;50.930;5.344;2023-04-06T03:51:21;21.90;;;14.40;;
12900;SDS011;6518;50.930;5.344;2023-04-06T03:53:48;22.60;;;14.40;;
12900;SDS011;6518;50.930;5.344;2023-04-06T03:56:15;19.50;;;14.13;;
12900;SDS011;6518;50.930;5.344;2023-04-06T03:58:43;23.90;;;13.20;;
12900;SDS011;6518;50.930;5.344;2023-04-06T04:01:10;21.83;;;14.37;;
12900;SDS011;6518;50.930;5.344;2023-04-06T04:03:37;18.33;;;13.27;;
12900;SDS011;6518;50.930;5.344;2023-04-06T04:06:04;24.73;;;13.53;;
12900;SDS011;6518;50.930;5.344;2023-04-06T04:08:31;23.53;;;14.33;;
12900;SDS011;6518;50.930;5.344;2023-04-06T04:10:58;21.93;;;14.23;;
12900;SDS011;6518;50.930;5.344;2023-04-06T04:13:25;23.87;;;14.17;;
12900;SDS011;6518;50.930;5.344;2023-04-06T04:15:53;20.97;;;14.07;;
12900;SDS011;6518;50.930;5.344;2023-04-06T04:18:20;20.97;;;13.83;;
12900;SDS011;6518;50.930;5.344;2023-04-06T04:20:47;20.47;;;12.73;;
12900;SDS011;6518;50.930;5.344;2023-04-06T04:23:14;20.40;;;13.57;;
12900;SDS011;6518;50.930;5.344;2023-04-06T04:25:43;18.93;;;12.83;;
12900;SDS011;6518;50.930;5.344;2023-04-06T04:28:10;24.10;;;13.30;;
12900;SDS011;6518;50.930;5.344;2023-04-06T04:30:37;16.70;;;12.27;;
12900;SDS011;6518;50.930;5.344;2023-04-06T04:33:05;19.07;;;13.47;;
12900;SDS011;6518;50.930;5.344;2023-04-06T04:35:32;20.10;;;13.73;;
12900;SDS011;6518;50.930;5.344;2023-04-06T04:37:59;18.93;;;12.57;;
12900;SDS011;6518;50.930;5.344;2023-04-06T04:40:26;21.10;;;13.67;;
12900;SDS011;6518;50.930;5.344;2023-04-06T04:42:53;20.40;;;12.67;;
12900;SDS011;6518;50.930;5.344;2023-04-06T04:45:20;15.53;;;12.57;;
12900;SDS011;6518;50.930;5.344;2023-04-06T04:47:46;19.13;;;12.97;;
12900;SDS011;6518;50.930;5.344;2023-04-06T04:50:15;18.73;;;13.30;;
12900;SDS011;6518;50.930;5.344;2023-04-06T04:52:42;19.90;;;13.33;;
12900;SDS011;6518;50.930;5.344;2023-04-06T04:55:09;22.60;;;13.13;;
12900;SDS011;6518;50.930;5.344;2023-04-06T04:57:35;18.87;;;12.40;;
12900;SDS011;6518;50.930;5.344;2023-04-06T05:00:03;17.83;;;12.70;;
12900;SDS011;6518;50.930;5.344;2023-04-06T05:02:30;23.37;;;13.83;;
12900;SDS011;6518;50.930;5.344;2023-04-06T05:04:57;21.80;;;12.60;;
12900;SDS011;6518;50.930;5.344;2023-04-06T05:07:25;17.07;;;11.80;;
12900;SDS011;6518;50.930;5.344;2023-04-06T05:09:52;18.63;;;12.10;;
12900;SDS011;6518;50.930;5.344;2023-04-06T05:12:19;19.20;;;12.30;;
12900;SDS011;6518;50.930;5.344;2023-04-06T05:14:46;22.20;;;13.27;;
12900;SDS011;6518;50.930;5.344;2023-04-06T05:17:13;20.23;;;12.23;;
12900;SDS011;6518;50.930;5.344;2023-04-06T05:19:40;19.83;;;12.00;;
12900;SDS011;6518;50.930;5.344;2023-04-06T05:22:07;20.80;;;12.83;;
12900;SDS011;6518;50.930;5.344;2023-04-06T05:24:36;24.47;;;12.73;;
12900;SDS011;6518;50.930;5.344;2023-04-06T05:27:03;20.13;;;12.43;;
12900;SDS011;6518;50.930;5.344;2023-04-06T05:29:30;21.40;;;13.10;;
12900;SDS011;6518;50.930;5.344;2023-04-06T05:31:57;20.27;;;13.10;;
12900;SDS011;6518;50.930;5.344;2023-04-06T05:34:24;21.77;;;12.50;;
12900;SDS011;6518;50.930;5.344;2023-04-06T05:36:51;18.83;;;12.17;;
12900;SDS011;6518;50.930;5.344;2023-04-06T05:39:18;18.27;;;12.87;;
12900;SDS011;6518;50.930;5.344;2023-04-06T05:41:47;20.40;;;12.80;;
12900;SDS011;6518;50.930;5.344;2023-04-06T05:44:14;19.30;;;12.57;;
12900;SDS011;6518;50.930;5.344;2023-04-06T05:46:41;19.97;;;13.07;;
12900;SDS011;6518;50.930;5.344;2023-04-06T05:49:08;17.60;;;12.53;;
12900;SDS011;6518;50.930;5.344;2023-04-06T05:51:35;20.57;;;12.43;;
12900;SDS011;6518;50.930;5.344;2023-04-06T05:54:02;21.07;;;13.40;;
12900;SDS011;6518;50.930;5.344;2023-04-06T05:56:29;22.10;;;12.77;;
12900;SDS011;6518;50.930;5.344;2023-04-06T05:58:58;22.03;;;13.17;;
12900;SDS011;6518;50.930;5.344;2023-04-06T06:01:25;21.40;;;12.97;;
12900;SDS011;6518;50.930;5.344;2023-04-06T06:03:52;23.10;;;13.30;;
12900;SDS011;6518;50.930;5.344;2023-04-06T06:06:19;19.40;;;12.87;;
12900;SDS011;6518;50.930;5.344;2023-04-06T06:08:45;20.10;;;13.03;;
12900;SDS011;6518;50.930;5.344;2023-04-06T06:11:12;21.57;;;13.53;;
12900;SDS011;6518;50.930;5.344;2023-04-06T06:13:39;21.80;;;13.33;;
12900;SDS011;6518;50.930;5.344;2023-04-06T06:16:08;20.13;;;12.40;;
12900;SDS011;6518;50.930;5.344;2023-04-06T06:18:35;24.07;;;12.20;;
12900;SDS011;6518;50.930;5.344;2023-04-06T06:21:02;21.90;;;12.23;;
12900;SDS011;6518;50.930;5.344;2023-04-06T06:23:29;19.97;;;12.73;;
12900;SDS011;6518;50.930;5.344;2023-04-06T06:25:56;23.20;;;12.70;;
12900;SDS011;6518;50.930;5.344;2023-04-06T06:28:23;19.27;;;12.53;;
12900;SDS011;6518;50.930;5.344;2023-04-06T06:30:51;25.47;;;13.30;;
12900;SDS011;6518;50.930;5.344;2023-04-06T06:33:19;22.80;;;12.57;;
12900;SDS011;6518;50.930;5.344;2023-04-06T06:35:47;23.33;;;12.97;;
12900;SDS011;6518;50.930;5.344;2023-04-06T06:38:14;19.20;;;12.80;;
12900;SDS011;6518;50.930;5.344;2023-04-06T06:40:41;20.30;;;12.60;;
12900;SDS011;6518;50.930;5.344;2023-04-06T06:43:08;19.83;;;12.70;;
12900;SDS011;6518;50.930;5.344;2023-04-06T06:45:35;22.00;;;12.67;;
12900;SDS011;6518;50.930;5.344;2023-04-06T06:48:02;20.03;;;12.73;;
12900;SDS011;6518;50.930;5.344;2023-04-06T06:50:30;23.30;;;13.00;;
12900;SDS011;6518;50.930;5.344;2023-04-06T06:52:57;20.03;;;12.63;;
12900;SDS011;6518;50.930;5.344;2023-04-06T06:55:24;22.70;;;11.70;;
12900;SDS011;6518;50.930;5.344;2023-04-06T06:57:51;18.93;;;12.33;;
12900;SDS011;6518;50.930;5.344;2023-04-06T07:00:18;22.90;;;12.17;;
12900;SDS011;6518;50.930;5.344;2023-04-06T07:02:46;17.43;;;11.23;;
12900;SDS011;6518;50.930;5.344;2023-04-06T07:05:15;21.93;;;12.17;;
12900;SDS011;6518;50.930;5.344;2023-04-06T07:07:44;23.93;;;12.63;;
12900;SDS011;6518;50.930;5.344;2023-04-06T07:10:11;21.77;;;13.87;;
12900;SDS011;6518;50.930;5.344;2023-04-06T07:12:37;19.83;;;11.73;;
12900;SDS011;6518;50.930;5.344;2023-04-06T07:15:05;23.07;;;12.63;;
12900;SDS011;6518;50.930;5.344;2023-04-06T07:17:33;17.20;;;11.63;;
12900;SDS011;6518;50.930;5.344;2023-04-06T07:20:00;16.37;;;11.50;;
12900;SDS011;6518;50.930;5.344;2023-04-06T07:22:27;23.17;;;11.40;;
12900;SDS011;6518;50.930;5.344;2023-04-06T07:24:55;25.27;;;12.70;;
12900;SDS011;6518;50.930;5.344;2023-04-06T07:27:22;20.13;;;10.97;;
12900;SDS011;6518;50.930;5.344;2023-04-06T07:29:49;17.20;;;11.70;;
12900;SDS011;6518;50.930;5.344;2023-04-06T07:32:16;17.70;;;11.03;;
12900;SDS011;6518;50.930;5.344;2023-04-06T07:34:42;18.27;;;11.50;;
12900;SDS011;6518;50.930;5.344;2023-04-06T07:37:10;18.60;;;11.43;;
12900;SDS011;6518;50.930;5.344;2023-04-06T07:39:37;15.87;;;11.33;;
12900;SDS011;6518;50.930;5.344;2023-04-06T07:42:05;16.87;;;10.77;;
12900;SDS011;6518;50.930;5.344;2023-04-06T07:44:32;16.93;;;11.27;;
12900;SDS011;6518;50.930;5.344;2023-04-06T07:46:59;15.37;;;10.97;;
12900;SDS011;6518;50.930;5.344;2023-04-06T07:49:26;16.33;;;11.13;;
12900;SDS011;6518;50.930;5.344;2023-04-06T07:51:53;17.30;;;10.83;;
12900;SDS011;6518;50.930;5.344;2023-04-06T07:54:20;16.43;;;10.87;;
12900;SDS011;6518;50.930;5.344;2023-04-06T07:56:47;18.57;;;10.77;;
12900;SDS011;6518;50.930;5.344;2023-04-06T07:59:15;18.10;;;10.70;;
12900;SDS011;6518;50.930;5.344;2023-04-06T08:01:42;16.30;;;11.40;;
12900;SDS011;6518;50.930;5.344;2023-04-06T08:04:09;21.57;;;10.87;;
12900;SDS011;6518;50.930;5.344;2023-04-06T08:06:36;17.90;;;10.70;;
12900;SDS011;6518;50.930;5.344;2023-04-06T08:09:03;17.80;;;10.57;;
12900;SDS011;6518;50.930;5.344;2023-04-06T08:11:30;17.43;;;11.03;;
12900;SDS011;6518;50.930;5.344;2023-04-06T08:13:57;18.07;;;10.50;;
12900;SDS011;6518;50.930;5.344;2023-04-06T08:16:25;18.13;;;10.53;;
12900;SDS011;6518;50.930;5.344;2023-04-06T08:18:52;23.20;;;10.83;;
12900;SDS011;6518;50.930;5.344;2023-04-06T08:21:19;14.30;;;10.30;;
12900;SDS011;6518;50.930;5.344;2023-04-06T08:23:46;21.40;;;10.67;;
12900;SDS011;6518;50.930;5.344;2023-04-06T08:26:13;20.20;;;12.20;;
12900;SDS011;6518;50.930;5.344;2023-04-06T08:28:40;16.03;;;11.10;;
12900;SDS011;6518;50.930;5.344;2023-04-06T08:31:07;18.47;;;11.27;;
12900;SDS011;6518;50.930;5.344;2023-04-06T08:33:35;17.63;;;10.87;;
12900;SDS011;6518;50.930;5.344;2023-04-06T08:36:07;18.07;;;10.63;;
12900;SDS011;6518;50.930;5.344;2023-04-06T08:38:35;15.10;;;10.57;;
12900;SDS011;6518;50.930;5.344;2023-04-06T08:41:06;14.70;;;10.03;;
12900;SDS011;6518;50.930;5.344;2023-04-06T08:43:35;17.50;;;10.93;;
12900;SDS011;6518;50.930;5.344;2023-04-06T08:46:07;13.73;;;9.83;;
12900;SDS011;6518;50.930;5.344;2023-04-06T08:48:36;18.00;;;10.43;;
12900;SDS011;6518;50.930;5.344;2023-04-06T08:51:04;18.90;;;10.73;;
12900;SDS011;6518;50.930;5.344;2023-04-06T08:53:31;16.10;;;11.23;;
12900;SDS011;6518;50.930;5.344;2023-04-06T08:55:58;18.83;;;10.93;;
12900;SDS011;6518;50.930;5.344;2023-04-06T08:58:28;15.33;;;10.27;;
12900;SDS011;6518;50.930;5.344;2023-04-06T09:00:58;19.50;;;9.73;;
12900;SDS011;6518;50.930;5.344;2023-04-06T09:03:26;16.80;;;10.20;;
12900;SDS011;6518;50.930;5.344;2023-04-06T09:05:57;16.43;;;9.47;;
12900;SDS011;6518;50.930;5.344;2023-04-06T09:08:25;15.80;;;9.17;;
12900;SDS011;6518;50.930;5.344;2023-04-06T09:10:52;13.30;;;8.87;;
12900;SDS011;6518;50.930;5.344;2023-04-06T09:13:19;17.03;;;8.77;;
12900;SDS011;6518;50.930;5.344;2023-04-06T09:15:46;13.10;;;8.90;;
12900;SDS011;6518;50.930;5.344;2023-04-06T09:18:27;16.37;;;8.60;;
12900;SDS011;6518;50.930;5.344;2023-04-06T09:21:03;12.67;;;8.27;;
12900;SDS011;6518;50.930;5.344;2023-04-06T09:23:31;13.87;;;8.60;;
12900;SDS011;6518;50.930;5.344;2023-04-06T09:26:05;12.07;;;8.70;;
12900;SDS011;6518;50.930;5.344;2023-04-06T09:28:43;12.23;;;8.87;;
12900;SDS011;6518;50.930;5.344;2023-04-06T09:31:11;11.90;;;8.10;;
12900;SDS011;6518;50.930;5.344;2023-04-06T09:33:40;12.23;;;7.67;;
12900;SDS011;6518;50.930;5.344;2023-04-06T09:36:09;14.40;;;8.00;;
12900;SDS011;6518;50.930;5.344;2023-04-06T09:38:37;11.67;;;7.73;;
12900;SDS011;6518;50.930;5.344;2023-04-06T09:41:05;10.40;;;7.77;;
12900;SDS011;6518;50.930;5.344;2023-04-06T09:43:32;9.87;;;7.33;;
12900;SDS011;6518;50.930;5.344;2023-04-06T09:46:00;11.07;;;7.67;;
12900;SDS011;6518;50.930;5.344;2023-04-06T09:48:30;10.93;;;7.70;;
12900;SDS011;6518;50.930;5.344;2023-04-06T09:50:59;11.70;;;7.60;;
12900;SDS011;6518;50.930;5.344;2023-04-06T09:53:31;10.77;;;7.70;;
12900;SDS011;6518;50.930;5.344;2023-04-06T09:56:03;9.97;;;7.17;;
12900;SDS011;6518;50.930;5.344;2023-04-06T09:58:35;10.37;;;7.67;;
12900;SDS011;6518;50.930;5.344;2023-04-06T10:01:07;11.47;;;7.53;;
12900;SDS011;6518;50.930;5.344;2023-04-06T10:03:41;10.13;;;8.03;;
12900;SDS011;6518;50.930;5.344;2023-04-06T10:06:15;12.20;;;8.47;;
12900;SDS011;6518;50.930;5.344;2023-04-06T10:08:47;11.70;;;8.40;;
12900;SDS011;6518;50.930;5.344;2023-04-06T10:11:19;13.13;;;8.07;;
12900;SDS011;6518;50.930;5.344;2023-04-06T10:13:47;14.43;;;8.30;;
12900;SDS011;6518;50.930;5.344;2023-04-06T10:16:15;9.87;;;7.77;;
12900;SDS011;6518;50.930;5.344;2023-04-06T10:18:43;13.93;;;8.73;;
12900;SDS011;6518;50.930;5.344;2023-04-06T10:21:14;10.23;;;8.13;;
12900;SDS011;6518;50.930;5.344;2023-04-06T10:23:46;10.93;;;8.63;;
12900;SDS011;6518;50.930;5.344;2023-04-06T10:26:23;9.87;;;8.07;;
12900;SDS011;6518;50.930;5.344;2023-04-06T10:28:51;13.30;;;8.20;;
12900;SDS011;6518;50.930;5.344;2023-04-06T10:31:28;10.80;;;7.80;;
12900;SDS011;6518;50.930;5.344;2023-04-06T10:33:55;11.60;;;8.30;;
12900;SDS011;6518;50.930;5.344;2023-04-06T10:36:24;11.00;;;8.20;;
12900;SDS011;6518;50.930;5.344;2023-04-06T10:38:57;12.17;;;8.87;;
12900;SDS011;6518;50.930;5.344;2023-04-06T10:41:31;11.73;;;8.43;;
12900;SDS011;6518;50.930;5.344;2023-04-06T10:44:00;10.33;;;8.30;;
12900;SDS011;6518;50.930;5.344;2023-04-06T10:46:28;13.03;;;8.50;;
12900;SDS011;6518;50.930;5.344;2023-04-06T10:48:57;13.47;;;9.83;;
12900;SDS011;6518;50.930;5.344;2023-04-06T10:51:25;13.13;;;8.67;;
12900;SDS011;6518;50.930;5.344;2023-04-06T10:53:54;9.33;;;7.73;;
12900;SDS011;6518;50.930;5.344;2023-04-06T10:56:24;10.67;;;8.03;;
12900;SDS011;6518;50.930;5.344;2023-04-06T10:58:53;9.87;;;7.50;;
12900;SDS011;6518;50.930;5.344;2023-04-06T11:01:22;10.00;;;7.40;;
12900;SDS011;6518;50.930;5.344;2023-04-06T11:03:50;10.67;;;7.43;;
12900;SDS011;6518;50.930;5.344;2023-04-06T11:06:19;10.23;;;7.03;;
12900;SDS011;6518;50.930;5.344;2023-04-06T11:08:46;12.37;;;7.30;;
12900;SDS011;6518;50.930;5.344;2023-04-06T11:11:16;9.30;;;6.80;;
12900;SDS011;6518;50.930;5.344;2023-04-06T11:13:46;8.73;;;6.90;;
12900;SDS011;6518;50.930;5.344;2023-04-06T11:16:15;10.10;;;6.50;;
12900;SDS011;6518;50.930;5.344;2023-04-06T11:18:47;9.33;;;6.40;;
12900;SDS011;6518;50.930;5.344;2023-04-06T11:21:18;9.30;;;6.70;;
12900;SDS011;6518;50.930;5.344;2023-04-06T11:23:45;11.23;;;7.13;;
12900;SDS011;6518;50.930;5.344;2023-04-06T11:26:13;8.87;;;6.77;;
12900;SDS011;6518;50.930;5.344;2023-04-06T11:28:41;10.87;;;7.50;;
12900;SDS011;6518;50.930;5.344;2023-04-06T11:31:09;8.47;;;6.80;;
12900;SDS011;6518;50.930;5.344;2023-04-06T11:33:37;9.10;;;6.77;;
12900;SDS011;6518;50.930;5.344;2023-04-06T11:36:05;9.60;;;7.37;;
12900;SDS011;6518;50.930;5.344;2023-04-06T11:38:32;9.90;;;6.80;;
12900;SDS011;6518;50.930;5.344;2023-04-06T11:41:00;10.83;;;7.53;;
12900;SDS011;6518;50.930;5.344;2023-04-06T11:43:29;8.70;;;7.17;;
12900;SDS011;6518;50.930;5.344;2023-04-06T11:46:00;14.43;;;7.63;;
12900;SDS011;6518;50.930;5.344;2023-04-06T11:48:28;8.93;;;7.13;;
12900;SDS011;6518;50.930;5.344;2023-04-06T11:50:55;10.10;;;7.20;;
12900;SDS011;6518;50.930;5.344;2023-04-06T11:53:23;9.73;;;7.30;;
12900;SDS011;6518;50.930;5.344;2023-04-06T11:55:50;11.80;;;7.90;;
12900;SDS011;6518;50.930;5.344;2023-04-06T11:58:17;9.87;;;7.50;;
12900;SDS011;6518;50.930;5.344;2023-04-06T12:00:45;9.80;;;6.93;;
12900;SDS011;6518;50.930;5.344;2023-04-06T12:03:12;9.13;;;6.77;;
12900;SDS011;6518;50.930;5.344;2023-04-06T12:05:40;9.73;;;7.23;;
12900;SDS011;6518;50.930;5.344;2023-04-06T12:08:07;8.50;;;6.90;;
12900;SDS011;6518;50.930;5.344;2023-04-06T12:10:34;7.63;;;6.13;;
12900;SDS011;6518;50.930;5.344;2023-04-06T12:13:00;7.10;;;6.20;;
12900;SDS011;6518;50.930;5.344;2023-04-06T12:15:27;8.10;;;5.77;;
12900;SDS011;6518;50.930;5.344;2023-04-06T12:17:56;6.93;;;5.83;;
12900;SDS011;6518;50.930;5.344;2023-04-06T12:20:23;8.43;;;6.23;;
12900;SDS011;6518;50.930;5.344;2023-04-06T12:22:50;7.30;;;5.83;;
12900;SDS011;6518;50.930;5.344;2023-04-06T12:25:17;8.67;;;6.10;;
12900;SDS011;6518;50.930;5.344;2023-04-06T12:27:44;7.90;;;6.23;;
12900;SDS011;6518;50.930;5.344;2023-04-06T12:30:12;8.33;;;6.40;;
12900;SDS011;6518;50.930;5.344;2023-04-06T12:32:39;9.70;;;6.43;;
12900;SDS011;6518;50.930;5.344;2023-04-06T12:35:08;7.27;;;6.23;;
12900;SDS011;6518;50.930;5.344;2023-04-06T12:37:36;7.30;;;6.33;;
12900;SDS011;6518;50.930;5.344;2023-04-06T12:40:04;10.23;;;6.50;;
12900;SDS011;6518;50.930;5.344;2023-04-06T12:42:32;8.00;;;6.70;;
12900;SDS011;6518;50.930;5.344;2023-04-06T12:44:59;9.73;;;6.70;;
12900;SDS011;6518;50.930;5.344;2023-04-06T12:47:25;8.40;;;6.73;;
12900;SDS011;6518;50.930;5.344;2023-04-06T12:49:53;9.80;;;6.90;;
12900;SDS011;6518;50.930;5.344;2023-04-06T12:52:21;8.83;;;6.63;;
12900;SDS011;6518;50.930;5.344;2023-04-06T12:54:48;7.43;;;6.40;;
12900;SDS011;6518;50.930;5.344;2023-04-06T12:57:16;9.40;;;7.13;;
12900;SDS011;6518;50.930;5.344;2023-04-06T12:59:43;9.20;;;7.20;;
12900;SDS011;6518;50.930;5.344;2023-04-06T13:02:11;9.37;;;6.90;;
12900;SDS011;6518;50.930;5.344;2023-04-06T13:04:38;7.30;;;6.43;;
12900;SDS011;6518;50.930;5.344;2023-04-06T13:07:05;8.77;;;6.53;;
12900;SDS011;6518;50.930;5.344;2023-04-06T13:09:33;9.23;;;6.47;;
12900;SDS011;6518;50.930;5.344;2023-04-06T13:12:00;8.30;;;6.10;;
12900;SDS011;6518;50.930;5.344;2023-04-06T13:14:27;8.10;;;6.33;;
12900;SDS011;6518;50.930;5.344;2023-04-06T13:16:54;8.77;;;6.70;;
12900;SDS011;6518;50.930;5.344;2023-04-06T13:19:22;8.57;;;6.60;;
12900;SDS011;6518;50.930;5.344;2023-04-06T13:21:50;8.80;;;6.63;;
12900;SDS011;6518;50.930;5.344;2023-04-06T13:24:17;7.17;;;6.20;;
12900;SDS011;6518;50.930;5.344;2023-04-06T13:26:46;7.70;;;6.47;;
12900;SDS011;6518;50.930;5.344;2023-04-06T13:29:12;8.37;;;6.67;;
12900;SDS011;6518;50.930;5.344;2023-04-06T13:31:39;8.67;;;6.83;;
12900;SDS011;6518;50.930;5.344;2023-04-06T13:34:06;9.10;;;6.93;;
12900;SDS011;6518;50.930;5.344;2023-04-06T13:36:33;7.87;;;6.40;;
12900;SDS011;6518;50.930;5.344;2023-04-06T13:39:00;9.47;;;6.70;;
12900;SDS011;6518;50.930;5.344;2023-04-06T13:41:28;8.23;;;6.77;;
12900;SDS011;6518;50.930;5.344;2023-04-06T13:43:56;7.97;;;6.57;;
12900;SDS011;6518;50.930;5.344;2023-04-06T13:46:23;8.23;;;6.77;;
12900;SDS011;6518;50.930;5.344;2023-04-06T13:48:50;9.53;;;6.40;;
12900;SDS011;6518;50.930;5.344;2023-04-06T13:51:17;9.33;;;6.63;;
12900;SDS011;6518;50.930;5.344;2023-04-06T13:53:44;7.90;;;6.40;;
12900;SDS011;6518;50.930;5.344;2023-04-06T13:56:11;8.07;;;6.80;;
12900;SDS011;6518;50.930;5.344;2023-04-06T13:58:37;7.47;;;6.67;;
12900;SDS011;6518;50.930;5.344;2023-04-06T14:01:06;8.37;;;7.10;;
12900;SDS011;6518;50.930;5.344;2023-04-06T14:03:34;7.30;;;6.60;;
12900;SDS011;6518;50.930;5.344;2023-04-06T14:06:08;8.87;;;7.07;;
12900;SDS011;6518;50.930;5.344;2023-04-06T14:08:36;7.77;;;6.80;;
12900;SDS011;6518;50.930;5.344;2023-04-06T14:11:03;7.17;;;6.30;;
12900;SDS011;6518;50.930;5.344;2023-04-06T14:13:33;11.17;;;6.40;;
12900;SDS011;6518;50.930;5.344;2023-04-06T14:16:00;7.73;;;6.30;;
12900;SDS011;6518;50.930;5.344;2023-04-06T14:18:28;7.43;;;6.17;;
12900;SDS011;6518;50.930;5.344;2023-04-06T14:20:56;7.77;;;6.50;;
12900;SDS011;6518;50.930;5.344;2023-04-06T14:23:24;7.83;;;6.10;;
12900;SDS011;6518;50.930;5.344;2023-04-06T14:25:51;7.30;;;5.97;;
12900;SDS011;6518;50.930;5.344;2023-04-06T14:28:26;6.93;;;6.00;;
12900;SDS011;6518;50.930;5.344;2023-04-06T14:30:53;6.80;;;6.10;;
12900;SDS011;6518;50.930;5.344;2023-04-06T14:33:20;7.13;;;6.43;;
12900;SDS011;6518;50.930;5.344;2023-04-06T14:35:48;7.40;;;6.47;;
12900;SDS011;6518;50.930;5.344;2023-04-06T14:38:14;7.93;;;6.90;;
12900;SDS011;6518;50.930;5.344;2023-04-06T14:40:41;8.00;;;6.73;;
12900;SDS011;6518;50.930;5.344;2023-04-06T14:43:08;8.70;;;6.90;;
12900;SDS011;6518;50.930;5.344;2023-04-06T14:45:35;9.50;;;7.03;;